createdAt,value
2023-09-22T00:02:15.166Z,21.50
2023-09-22T00:04:45.339Z,21.50
2023-09-22T00:07:16.733Z,21.70
2023-09-22T00:09:46.570Z,21.40
2023-09-22T00:12:16.494Z,21.70
2023-09-22T00:14:46.896Z,21.70
2023-09-22T00:17:18.135Z,21.60
2023-09-22T00:19:47.845Z,21.50
2023-09-22T00:22:19.394Z,21.60
2023-09-22T00:24:49.234Z,21.50
2023-09-22T00:27:19.129Z,21.40
2023-09-22T00:29:48.938Z,21.60
2023-09-22T00:32:19.058Z,21.40
2023-09-22T00:34:48.867Z,21.60
2023-09-22T00:37:20.217Z,21.30
2023-09-22T00:39:50.196Z,21.50
2023-09-22T00:42:20.171Z,21.10
2023-09-22T00:44:50.267Z,21.50
2023-09-22T00:47:22.642Z,21.30
2023-09-22T00:49:52.763Z,20.80
2023-09-22T00:52:25.233Z,21.00
2023-09-22T00:54:55.495Z,21.00
2023-09-22T00:57:25.600Z,20.90
2023-09-22T00:59:56.818Z,21.10
2023-09-22T01:02:27.793Z,20.90
2023-09-22T01:04:58.066Z,21.00
2023-09-22T01:07:29.544Z,21.00
2023-09-22T01:10:10.926Z,21.10
2023-09-22T01:12:40.963Z,20.90
2023-09-22T01:15:12.179Z,21.10
2023-09-22T01:17:42.321Z,21.10
2023-09-22T01:20:12.319Z,21.20
2023-09-22T01:22:45.398Z,20.80
2023-09-22T01:25:15.119Z,20.80
2023-09-22T01:27:45.203Z,20.70
2023-09-22T01:30:17.121Z,21.20
2023-09-22T01:32:47.062Z,20.90
2023-09-22T01:35:16.715Z,20.80
2023-09-22T01:37:54.480Z,20.60
2023-09-22T01:40:24.440Z,20.60
2023-09-22T01:42:55.656Z,20.80
2023-09-22T01:45:26.644Z,20.80
2023-09-22T01:47:57.086Z,20.80
2023-09-22T01:50:26.855Z,20.90
2023-09-22T01:52:58.203Z,20.90
2023-09-22T01:55:28.219Z,20.80
2023-09-22T01:57:58.175Z,20.60
2023-09-22T02:00:28.099Z,20.80
2023-09-22T02:02:59.630Z,20.60
2023-09-22T02:05:29.632Z,20.60
2023-09-22T02:08:01.574Z,20.50
2023-09-22T02:10:31.493Z,20.50
2023-09-22T02:13:01.289Z,20.40
2023-09-22T02:15:31.192Z,20.20
2023-09-22T02:18:01.246Z,20.20
2023-09-22T02:20:31.565Z,20.00
2023-09-22T02:23:03.010Z,20.10
2023-09-22T02:25:32.935Z,20.20
2023-09-22T02:28:04.209Z,20.10
2023-09-22T02:30:34.293Z,20.40
2023-09-22T02:33:04.244Z,20.50
2023-09-22T02:35:34.731Z,20.40
2023-09-22T02:38:06.593Z,20.40
2023-09-22T02:40:36.499Z,20.20
2023-09-22T02:43:08.048Z,20.30
2023-09-22T02:45:41.052Z,20.40
2023-09-22T02:48:10.977Z,20.50
2023-09-22T02:50:41.374Z,20.30
2023-09-22T02:53:12.425Z,20.20
2023-09-22T02:55:42.546Z,20.20
2023-09-22T02:58:12.248Z,20.30
2023-09-22T03:00:45.878Z,20.30
2023-09-22T03:03:17.469Z,20.30
2023-09-22T03:05:48.546Z,20.60
2023-09-22T03:08:19.905Z,20.40
2023-09-22T03:10:50.515Z,20.30
2023-09-22T03:13:20.327Z,20.30
2023-09-22T03:15:49.921Z,20.20
2023-09-22T03:18:20.998Z,20.20
2023-09-22T03:20:51.116Z,20.20
2023-09-22T03:23:22.352Z,20.20
2023-09-22T03:25:53.386Z,20.10
2023-09-22T03:28:23.221Z,20.20
2023-09-22T03:30:53.294Z,20.10
2023-09-22T03:33:24.141Z,20.00
2023-09-22T03:35:54.068Z,20.20
2023-09-22T03:38:27.566Z,20.10
2023-09-22T03:41:02.259Z,20.10
2023-09-22T03:43:32.845Z,20.20
2023-09-22T03:46:02.687Z,20.10
2023-09-22T03:48:32.740Z,20.30
2023-09-22T03:51:02.779Z,20.40
2023-09-22T03:53:34.270Z,20.10
2023-09-22T03:56:04.237Z,20.30
2023-09-22T03:58:34.054Z,20.30
2023-09-22T04:01:08.567Z,20.30
2023-09-22T04:03:39.423Z,20.30
2023-09-22T04:06:09.337Z,20.30
2023-09-22T04:08:41.290Z,20.40
2023-09-22T04:11:11.518Z,20.50
2023-09-22T04:13:42.244Z,20.20
2023-09-22T04:16:12.293Z,20.30
2023-09-22T04:18:42.261Z,20.10
2023-09-22T04:21:12.597Z,20.40
2023-09-22T04:23:51.934Z,20.30
2023-09-22T04:26:29.066Z,20.40
2023-09-22T04:29:00.588Z,20.10
2023-09-22T04:31:31.067Z,20.50
2023-09-22T04:34:02.387Z,20.40
2023-09-22T04:36:32.847Z,20.30
2023-09-22T04:39:06.276Z,20.30
2023-09-22T04:41:36.290Z,20.60
2023-09-22T04:44:08.415Z,20.40
2023-09-22T04:46:38.566Z,20.50
2023-09-22T04:49:08.616Z,20.30
2023-09-22T04:51:38.523Z,20.40
2023-09-22T04:54:10.122Z,20.30
2023-09-22T04:56:40.071Z,20.40
2023-09-22T04:59:11.020Z,20.20
2023-09-22T05:01:41.177Z,20.60
2023-09-22T05:04:11.655Z,20.50
2023-09-22T05:06:41.905Z,20.40
2023-09-22T05:09:13.265Z,20.40
2023-09-22T05:11:43.142Z,20.20
2023-09-22T05:14:13.987Z,20.20
2023-09-22T05:16:44.567Z,20.20
2023-09-22T05:19:14.544Z,20.30
2023-09-22T05:21:46.146Z,20.40
2023-09-22T05:24:18.132Z,20.60
2023-09-22T05:26:49.054Z,20.60
2023-09-22T05:29:18.898Z,20.70
2023-09-22T05:31:48.898Z,20.90
2023-09-22T05:34:20.900Z,20.80
2023-09-22T05:36:50.978Z,21.00
2023-09-22T05:39:22.648Z,20.80
2023-09-22T05:41:52.657Z,20.80
2023-09-22T05:44:23.508Z,20.90
2023-09-22T05:46:54.057Z,20.90
2023-09-22T05:49:24.049Z,21.10
2023-09-22T05:51:54.625Z,21.00
2023-09-22T05:54:26.181Z,20.90
2023-09-22T05:56:56.249Z,20.80
2023-09-22T05:59:27.494Z,20.90
2023-09-22T06:01:58.793Z,21.00
2023-09-22T06:04:31.038Z,21.10
2023-09-22T06:07:02.411Z,21.00
2023-09-22T06:09:34.142Z,21.20
2023-09-22T06:12:04.124Z,21.00
2023-09-22T06:14:33.939Z,21.20
2023-09-22T06:17:03.913Z,21.20
2023-09-22T06:19:33.778Z,21.10
2023-09-22T06:22:06.254Z,21.30
2023-09-22T06:24:37.832Z,21.10
2023-09-22T06:27:08.535Z,21.10
2023-09-22T06:29:38.690Z,21.20
2023-09-22T06:32:09.186Z,21.20
2023-09-22T06:34:38.988Z,21.30
2023-09-22T06:37:08.739Z,21.20
2023-09-22T06:39:40.502Z,21.30
2023-09-22T06:42:10.472Z,21.40
2023-09-22T06:44:39.985Z,21.20
2023-09-22T06:47:10.700Z,21.30
2023-09-22T06:49:40.529Z,21.20
2023-09-22T06:52:10.604Z,21.30
2023-09-22T06:54:45.315Z,21.10
2023-09-22T06:57:16.112Z,21.20
2023-09-22T06:59:48.682Z,21.30
2023-09-22T07:02:18.383Z,21.40
2023-09-22T07:04:49.334Z,21.20
2023-09-22T07:07:19.959Z,21.20
2023-09-22T07:09:51.255Z,21.30
2023-09-22T07:12:21.262Z,21.10
2023-09-22T07:14:50.921Z,21.10
2023-09-22T07:17:20.839Z,21.40
2023-09-22T07:19:50.550Z,21.20
2023-09-22T07:22:20.160Z,21.30
2023-09-22T07:24:54.134Z,21.10
2023-09-22T07:27:24.700Z,21.10
2023-09-22T07:29:57.072Z,21.20
2023-09-22T07:32:27.057Z,21.10
2023-09-22T07:34:57.109Z,20.90
2023-09-22T07:37:27.257Z,21.10
2023-09-22T07:39:58.739Z,21.00
2023-09-22T07:42:33.274Z,21.00
2023-09-22T07:45:03.522Z,21.00
2023-09-22T07:47:33.365Z,21.30
2023-09-22T07:50:03.330Z,21.30
2023-09-22T07:52:33.161Z,21.30
2023-09-22T07:55:06.781Z,21.30
2023-09-22T07:57:37.182Z,21.30
2023-09-22T08:00:11.633Z,21.40
2023-09-22T08:02:41.541Z,21.30
2023-09-22T08:05:16.699Z,21.10
2023-09-22T08:07:47.086Z,20.90
2023-09-22T08:10:25.085Z,20.90
2023-09-22T08:12:56.150Z,21.10
2023-09-22T08:15:26.535Z,21.20
2023-09-22T08:17:58.147Z,21.10
2023-09-22T08:20:27.940Z,20.90
2023-09-22T08:22:58.247Z,21.30
2023-09-22T08:25:30.308Z,21.30
2023-09-22T08:28:00.182Z,21.20
2023-09-22T08:30:30.675Z,21.40
2023-09-22T08:33:01.019Z,21.20
2023-09-22T08:35:31.811Z,21.50
2023-09-22T08:38:05.217Z,21.50
2023-09-22T08:40:38.981Z,21.50
2023-09-22T08:43:10.307Z,21.50
2023-09-22T08:45:40.686Z,21.50
2023-09-22T08:48:10.995Z,21.50
2023-09-22T08:50:41.661Z,21.50
2023-09-22T08:53:13.404Z,21.50
2023-09-22T08:55:44.854Z,21.50
2023-09-22T08:58:14.618Z,21.40
2023-09-22T09:00:46.148Z,21.80
2023-09-22T09:03:19.590Z,21.70
2023-09-22T09:05:50.886Z,21.90
2023-09-22T09:08:23.347Z,22.10
2023-09-22T09:10:54.896Z,21.90
2023-09-22T09:13:27.969Z,22.20
2023-09-22T09:16:03.074Z,21.90
2023-09-22T09:18:33.040Z,22.20
2023-09-22T09:21:12.469Z,22.00
2023-09-22T09:23:54.762Z,21.80
2023-09-22T09:26:31.543Z,21.80
2023-09-22T09:29:01.883Z,21.70
2023-09-22T09:31:47.418Z,21.60
2023-09-22T09:34:18.410Z,21.60
2023-09-22T09:36:48.163Z,21.80
2023-09-22T09:39:19.761Z,21.80
2023-09-22T09:41:51.712Z,21.60
2023-09-22T09:44:23.270Z,21.90
2023-09-22T09:46:53.119Z,21.80
2023-09-22T09:49:23.189Z,21.70
2023-09-22T09:51:54.570Z,21.80
2023-09-22T09:54:26.909Z,21.80
2023-09-22T09:56:58.995Z,21.70
2023-09-22T09:59:29.506Z,21.80
2023-09-22T10:02:00.012Z,21.80
2023-09-22T10:04:31.297Z,21.80
2023-09-22T10:07:02.248Z,21.60
2023-09-22T10:09:32.756Z,21.50
2023-09-22T10:12:06.198Z,21.50
2023-09-22T10:14:48.800Z,21.70
2023-09-22T10:17:26.621Z,21.70
2023-09-22T10:19:56.583Z,21.70
2023-09-22T10:22:28.661Z,21.70
2023-09-22T10:25:33.696Z,21.60
2023-09-22T10:28:09.772Z,21.50
2023-09-22T10:31:04.731Z,21.40
2023-09-22T10:33:34.847Z,21.50
2023-09-22T10:36:06.205Z,21.60
2023-09-22T10:38:57.722Z,21.60
2023-09-22T10:41:27.863Z,21.50
2023-09-22T10:44:03.692Z,21.60
2023-09-22T10:46:33.790Z,21.50
2023-09-22T10:49:03.999Z,21.70
2023-09-22T10:51:54.529Z,21.60
2023-09-22T10:54:25.588Z,21.60
2023-09-22T10:56:56.203Z,21.60
2023-09-22T10:59:37.848Z,21.80
2023-09-22T11:02:07.706Z,21.60
2023-09-22T11:04:45.301Z,21.60
2023-09-22T11:07:15.345Z,21.70
2023-09-22T11:09:45.337Z,21.80
2023-09-22T11:12:15.757Z,22.10
2023-09-22T11:14:47.112Z,22.30
2023-09-22T11:17:17.029Z,22.30
2023-09-22T11:19:54.277Z,22.50
2023-09-22T11:22:24.880Z,22.70
2023-09-22T11:24:54.962Z,22.80
2023-09-22T11:27:24.975Z,22.80
2023-09-22T11:30:15.543Z,23.00
2023-09-22T11:32:46.319Z,23.40
2023-09-22T11:35:35.232Z,23.80
2023-09-22T11:38:23.303Z,24.10
2023-09-22T11:40:53.738Z,24.10
2023-09-22T11:43:23.645Z,24.20
2023-09-22T11:46:08.773Z,24.30
2023-09-22T11:48:58.816Z,24.30
2023-09-22T11:51:50.323Z,24.30
2023-09-22T11:54:22.603Z,24.20
2023-09-22T11:56:56.343Z,24.20
2023-09-22T11:59:29.570Z,24.10
2023-09-22T12:02:04.439Z,24.10
2023-09-22T12:04:40.293Z,24.00
2023-09-22T12:07:11.121Z,23.80
2023-09-22T12:09:41.866Z,23.80
2023-09-22T12:12:11.709Z,23.60
2023-09-22T12:14:42.136Z,23.30
2023-09-22T12:17:13.674Z,23.60
2023-09-22T12:19:44.995Z,23.50
2023-09-22T12:22:14.875Z,23.50
2023-09-22T12:24:44.927Z,23.70
2023-09-22T12:27:14.629Z,23.70
2023-09-22T12:29:46.073Z,23.90
2023-09-22T12:32:17.610Z,24.00
2023-09-22T12:34:48.518Z,24.00
2023-09-22T12:37:18.225Z,23.50
2023-09-22T12:39:48.210Z,23.60
2023-09-22T12:42:18.005Z,23.70
2023-09-22T12:44:47.721Z,23.60
2023-09-22T12:47:20.705Z,23.50
2023-09-22T12:49:50.649Z,23.50
2023-09-22T12:52:20.434Z,23.40
2023-09-22T12:54:50.533Z,23.50
2023-09-22T12:57:21.993Z,23.60
2023-09-22T12:59:51.913Z,23.70
2023-09-22T13:02:23.280Z,23.80
2023-09-22T13:04:53.312Z,23.80
2023-09-22T13:07:23.293Z,23.60
2023-09-22T13:09:53.514Z,23.80
2023-09-22T13:12:23.339Z,23.80
2023-09-22T13:14:56.613Z,23.60
2023-09-22T13:17:28.161Z,23.70
2023-09-22T13:19:58.699Z,23.70
2023-09-22T13:22:28.508Z,23.80
2023-09-22T13:24:58.931Z,23.90
2023-09-22T13:27:29.055Z,23.80
2023-09-22T13:29:58.884Z,23.80
2023-09-22T13:32:30.326Z,23.40
2023-09-22T13:35:01.558Z,23.50
2023-09-22T13:37:31.534Z,23.40
2023-09-22T13:40:01.918Z,23.30
2023-09-22T13:42:33.353Z,23.30
2023-09-22T13:45:03.987Z,23.20
2023-09-22T13:47:35.475Z,23.10
2023-09-22T13:50:05.778Z,23.10
2023-09-22T13:52:35.799Z,23.10
2023-09-22T13:55:08.161Z,23.00
2023-09-22T13:57:38.271Z,23.10
2023-09-22T14:00:12.482Z,23.00
2023-09-22T14:02:44.395Z,22.90
2023-09-22T14:05:14.872Z,23.00
2023-09-22T14:07:44.731Z,22.70
2023-09-22T14:10:15.987Z,22.80
2023-09-22T14:12:46.051Z,22.70
2023-09-22T14:15:15.970Z,22.70
2023-09-22T14:17:47.305Z,22.70
2023-09-22T14:20:17.531Z,22.70
2023-09-22T14:22:48.107Z,22.60
2023-09-22T14:25:18.486Z,22.40
2023-09-22T14:27:48.189Z,22.40
2023-09-22T14:30:18.111Z,22.30
2023-09-22T14:32:50.545Z,22.50
2023-09-22T14:35:21.324Z,22.50
2023-09-22T14:37:51.290Z,22.70
2023-09-22T14:40:21.210Z,22.70
2023-09-22T14:42:53.519Z,22.70
2023-09-22T14:45:23.328Z,22.60
2023-09-22T14:47:56.132Z,22.80
2023-09-22T14:50:26.647Z,22.90
2023-09-22T14:52:56.810Z,22.90
2023-09-22T14:55:26.698Z,23.00
2023-09-22T14:58:11.661Z,23.00
2023-09-22T15:00:41.368Z,22.90
2023-09-22T15:03:12.782Z,22.70
2023-09-22T15:05:43.335Z,22.70
2023-09-22T15:08:13.240Z,22.90
2023-09-22T15:10:43.114Z,23.00
2023-09-22T15:13:17.468Z,23.20
2023-09-22T15:15:48.024Z,23.10
2023-09-22T15:18:19.778Z,23.10
2023-09-22T15:21:05.553Z,23.00
2023-09-22T15:23:35.366Z,23.00
2023-09-22T15:26:08.580Z,23.00
2023-09-22T15:28:39.808Z,22.90
2023-09-22T15:31:09.848Z,22.80
2023-09-22T15:33:41.392Z,22.90
2023-09-22T15:36:11.531Z,22.70
2023-09-22T15:38:42.024Z,22.60
2023-09-22T15:41:14.592Z,22.60
2023-09-22T15:43:44.543Z,22.50
2023-09-22T15:46:16.638Z,22.60
2023-09-22T15:48:48.339Z,22.50
2023-09-22T15:51:18.260Z,22.30
2023-09-22T15:53:48.980Z,22.30
2023-09-22T15:56:18.994Z,22.30
2023-09-22T15:58:49.965Z,22.30
2023-09-22T16:01:19.860Z,22.40
2023-09-22T16:03:51.626Z,22.40
2023-09-22T16:06:22.136Z,22.30
2023-09-22T16:08:52.251Z,22.20
2023-09-22T16:11:22.163Z,22.10
2023-09-22T16:13:52.144Z,22.20
2023-09-22T16:16:22.161Z,22.00
2023-09-22T16:18:53.548Z,22.00
2023-09-22T16:21:23.461Z,22.10
2023-09-22T16:23:53.478Z,22.20
2023-09-22T16:26:23.696Z,22.10
2023-09-22T16:28:56.306Z,22.10
2023-09-22T16:31:26.447Z,21.90
2023-09-22T16:33:57.956Z,21.70
2023-09-22T16:36:27.859Z,21.70
2023-09-22T16:38:59.015Z,21.80
2023-09-22T16:41:28.928Z,21.70
2023-09-22T16:43:59.174Z,21.60
2023-09-22T16:46:29.224Z,21.80
2023-09-22T16:49:00.509Z,21.60
2023-09-22T16:51:30.320Z,21.70
2023-09-22T16:54:00.438Z,21.60
2023-09-22T16:56:30.347Z,21.60
2023-09-22T16:59:00.493Z,21.60
2023-09-22T17:01:30.612Z,21.40
2023-09-22T17:04:01.896Z,21.50
2023-09-22T17:06:31.540Z,21.40
2023-09-22T17:09:01.354Z,21.50
2023-09-22T17:11:31.587Z,21.40
2023-09-22T17:14:02.081Z,21.40
2023-09-22T17:16:32.155Z,21.40
2023-09-22T17:19:04.302Z,21.60
2023-09-22T17:21:34.204Z,21.40
2023-09-22T17:24:04.842Z,21.50
2023-09-22T17:26:34.965Z,21.30
2023-09-22T17:29:05.652Z,21.10
2023-09-22T17:31:36.182Z,21.20
2023-09-22T17:34:08.287Z,21.20
2023-09-22T17:36:38.208Z,21.30
2023-09-22T17:39:07.914Z,21.20
2023-09-22T17:41:37.615Z,21.30
2023-09-22T17:44:08.401Z,21.50
2023-09-22T17:46:38.470Z,21.30
2023-09-22T17:49:10.440Z,21.50
2023-09-22T17:51:40.357Z,21.20
2023-09-22T17:54:10.470Z,21.30
2023-09-22T17:56:41.915Z,21.40
2023-09-22T17:59:11.916Z,21.00
2023-09-22T18:01:43.243Z,21.20
2023-09-22T18:04:14.854Z,21.40
2023-09-22T18:06:44.958Z,21.10
2023-09-22T18:09:16.421Z,21.00
2023-09-22T18:11:46.727Z,21.00
2023-09-22T18:14:17.657Z,20.80
2023-09-22T18:16:47.705Z,21.10
2023-09-22T18:19:19.224Z,20.90
2023-09-22T18:21:53.041Z,20.80
2023-09-22T18:24:23.476Z,20.80
2023-09-22T18:26:53.691Z,21.00
2023-09-22T18:29:25.235Z,21.00
2023-09-22T18:31:56.424Z,21.10
2023-09-22T18:34:28.553Z,20.90
2023-09-22T18:36:58.488Z,21.00
2023-09-22T18:39:30.635Z,20.80
2023-09-22T18:42:01.460Z,20.60
2023-09-22T18:44:31.384Z,20.80
2023-09-22T18:47:01.045Z,20.80
2023-09-22T18:49:33.818Z,20.80
2023-09-22T18:52:04.300Z,20.50
2023-09-22T18:54:34.722Z,20.60
2023-09-22T18:57:04.748Z,20.70
2023-09-22T18:59:34.548Z,20.80
2023-09-22T19:02:06.366Z,20.70
2023-09-22T19:04:41.205Z,20.80
2023-09-22T19:07:12.282Z,20.70
2023-09-22T19:09:43.014Z,20.70
2023-09-22T19:12:13.854Z,20.60
2023-09-22T19:14:43.762Z,20.60
2023-09-22T19:20:07.242Z,20.80
2023-09-22T19:22:37.497Z,20.70
2023-09-22T19:25:09.641Z,20.70
2023-09-22T19:27:40.486Z,20.70
2023-09-22T19:30:12.779Z,20.60
2023-09-22T19:32:43.329Z,20.40
2023-09-22T19:35:15.974Z,20.40
2023-09-22T19:37:46.406Z,20.70
2023-09-22T19:40:16.296Z,20.60
2023-09-22T19:42:46.831Z,20.30
2023-09-22T19:45:16.539Z,20.40
2023-09-22T19:47:50.662Z,20.20
2023-09-22T19:50:22.499Z,20.70
2023-09-22T19:52:53.284Z,20.50
2023-09-22T19:55:24.535Z,20.30
2023-09-22T19:57:55.012Z,20.40
2023-09-22T20:00:25.231Z,20.50
2023-09-22T20:02:56.586Z,20.20
2023-09-22T20:05:28.341Z,20.50
2023-09-22T20:07:59.425Z,20.30
2023-09-22T20:10:30.332Z,20.20
2023-09-22T20:13:00.026Z,20.40
2023-09-22T20:15:30.143Z,20.40
2023-09-22T20:18:00.164Z,20.10
2023-09-22T20:20:31.696Z,20.20
2023-09-22T20:23:01.700Z,20.30
2023-09-22T20:25:31.602Z,20.20
2023-09-22T20:28:01.665Z,20.10
2023-09-22T20:30:32.393Z,20.00
2023-09-22T20:33:02.405Z,20.40
2023-09-22T20:35:34.492Z,20.20
2023-09-22T20:38:04.320Z,20.40
2023-09-22T20:40:36.963Z,20.10
2023-09-22T20:43:07.695Z,20.10
2023-09-22T20:45:40.801Z,20.10
2023-09-22T20:48:11.296Z,19.90
2023-09-22T20:50:45.843Z,20.10
2023-09-22T20:53:15.872Z,20.20
2023-09-22T20:55:46.112Z,20.20
2023-09-22T20:58:15.892Z,19.90
2023-09-22T21:00:46.425Z,19.90
2023-09-22T21:03:21.424Z,19.80
2023-09-22T21:05:53.525Z,19.80
2023-09-22T21:08:24.270Z,20.10
2023-09-22T21:10:56.850Z,20.00
2023-09-22T21:13:27.144Z,19.80
2023-09-22T21:15:57.197Z,19.80
2023-09-22T21:18:29.275Z,19.90
2023-09-22T21:21:05.192Z,20.20
2023-09-22T21:23:36.337Z,20.00
2023-09-22T21:26:06.538Z,19.90
2023-09-22T21:28:38.892Z,19.80
2023-09-22T21:31:08.940Z,19.90
2023-09-22T21:33:38.868Z,19.90
2023-09-22T21:36:26.004Z,20.30
2023-09-22T21:38:56.305Z,20.00
2023-09-22T21:41:25.919Z,20.10
2023-09-22T21:43:56.378Z,20.10
2023-09-22T21:46:27.484Z,20.10
2023-09-22T21:48:57.261Z,20.20
2023-09-22T21:51:28.647Z,20.20
2023-09-22T21:53:58.552Z,20.10
2023-09-22T21:56:28.683Z,20.20
2023-09-22T21:58:58.656Z,20.30
2023-09-22T22:01:34.942Z,19.90
2023-09-22T22:04:05.242Z,20.00
2023-09-22T22:06:43.948Z,20.40
2023-09-22T22:09:16.613Z,20.20
2023-09-22T22:11:47.817Z,20.10
2023-09-22T22:14:17.638Z,20.10
2023-09-22T22:16:47.714Z,20.20
2023-09-22T22:19:19.613Z,20.30
2023-09-22T22:21:52.523Z,20.10
2023-09-22T22:24:23.435Z,20.20
2023-09-22T22:26:53.978Z,20.00
2023-09-22T22:29:24.594Z,20.00
2023-09-22T22:31:54.521Z,20.30
2023-09-22T22:34:24.424Z,19.90
2023-09-22T22:36:55.871Z,20.10
2023-09-22T22:39:25.782Z,20.10
2023-09-22T22:41:55.917Z,20.10
2023-09-22T22:44:25.819Z,20.00
2023-09-22T22:46:55.982Z,20.10
2023-09-22T22:49:26.148Z,20.20
2023-09-22T22:51:58.333Z,20.20
2023-09-22T22:54:30.213Z,20.10
2023-09-22T22:57:00.812Z,20.00
2023-09-22T22:59:31.245Z,19.90
2023-09-22T23:02:02.426Z,19.90
2023-09-22T23:04:32.442Z,20.00
2023-09-22T23:07:06.832Z,19.90
2023-09-22T23:09:36.755Z,20.10
2023-09-22T23:12:09.419Z,20.20
2023-09-22T23:14:39.243Z,20.10
2023-09-22T23:17:11.008Z,20.10
2023-09-22T23:19:42.757Z,20.10
2023-09-22T23:22:15.625Z,20.00
2023-09-22T23:24:45.345Z,20.00
2023-09-22T23:27:15.153Z,20.00
2023-09-22T23:29:45.264Z,20.00
2023-09-22T23:32:14.538Z,20.00
2023-09-22T23:34:43.957Z,20.10
2023-09-22T23:37:17.284Z,19.80
2023-09-22T23:39:46.658Z,19.90
2023-09-22T23:42:15.491Z,20.00
2023-09-22T23:44:44.518Z,20.00
2023-09-22T23:47:13.403Z,19.90
2023-09-22T23:49:42.355Z,19.90
2023-09-22T23:52:11.158Z,20.00
2023-09-22T23:54:41.575Z,19.90
2023-09-22T23:57:11.532Z,20.10
2023-09-22T23:59:41.145Z,20.00
